createdAt,value
2017-09-11T00:01:43.964Z,65.60
2017-09-11T00:04:11.420Z,65.70
2017-09-11T00:06:38.872Z,65.80
2017-09-11T00:09:06.313Z,65.90
2017-09-11T00:11:34.016Z,65.80
2017-09-11T00:14:07.104Z,65.90
2017-09-11T00:16:34.600Z,66.00
2017-09-11T00:19:02.052Z,66.20
2017-09-11T00:21:29.498Z,66.20
2017-09-11T00:23:56.954Z,66.40
2017-09-11T00:26:24.393Z,66.20
2017-09-11T00:28:51.851Z,66.40
2017-09-11T00:31:19.355Z,66.50
2017-09-11T00:33:46.797Z,66.80
2017-09-11T00:36:14.268Z,66.60
2017-09-11T00:38:41.697Z,66.50
2017-09-11T00:41:09.218Z,66.50
2017-09-11T00:43:36.658Z,66.40
2017-09-11T00:46:04.078Z,66.40
2017-09-11T00:48:31.511Z,66.40
2017-09-11T00:50:59.252Z,66.40
2017-09-11T00:53:26.680Z,66.40
2017-09-11T00:55:54.491Z,66.40
2017-09-11T00:58:21.981Z,66.40
2017-09-11T01:00:49.395Z,66.70
2017-09-11T01:03:16.856Z,66.40
2017-09-11T01:08:18.180Z,66.40
2017-09-11T01:10:46.015Z,66.40
2017-09-11T01:13:13.459Z,66.40
2017-09-11T01:15:40.910Z,66.40
2017-09-11T01:18:08.596Z,66.80
2017-09-11T01:20:36.061Z,66.90
2017-09-11T01:23:03.552Z,66.90
2017-09-11T01:25:30.951Z,66.80
2017-09-11T01:27:58.385Z,66.80
2017-09-11T01:30:25.996Z,66.80
2017-09-11T01:32:53.432Z,66.60
2017-09-11T01:35:21.255Z,66.60
2017-09-11T01:37:48.713Z,66.60
2017-09-11T01:40:16.128Z,66.70
2017-09-11T01:42:43.616Z,66.70
2017-09-11T01:45:11.071Z,66.90
2017-09-11T01:47:38.483Z,66.90
2017-09-11T01:50:06.051Z,67.00
2017-09-11T01:52:33.918Z,67.10
2017-09-11T01:55:01.347Z,67.10
2017-09-11T01:57:28.781Z,67.20
2017-09-11T01:59:56.272Z,67.00
2017-09-11T02:02:23.716Z,66.90
2017-09-11T02:04:51.135Z,66.70
2017-09-11T02:07:54.675Z,66.70
2017-09-11T02:10:22.349Z,66.40
2017-09-11T02:12:49.761Z,66.20
2017-09-11T02:15:17.603Z,66.20
2017-09-11T02:17:45.127Z,66.20
2017-09-11T02:20:12.568Z,66.40
2017-09-11T02:22:39.994Z,66.20
2017-09-11T02:25:07.414Z,66.10
2017-09-11T02:27:34.877Z,66.10
2017-09-11T02:30:02.308Z,66.10
2017-09-11T02:32:30.127Z,66.20
2017-09-11T02:34:57.551Z,66.20
2017-09-11T02:37:25.026Z,66.00
2017-09-11T02:39:52.483Z,65.90
2017-09-11T02:42:19.907Z,65.90
2017-09-11T02:44:47.367Z,65.80
2017-09-11T02:47:15.790Z,65.90
2017-09-11T02:49:43.226Z,65.80
2017-09-11T02:52:10.662Z,65.80
2017-09-11T02:54:38.121Z,65.80
2017-09-11T02:57:05.564Z,65.70
2017-09-11T02:59:34.078Z,65.70
2017-09-11T03:02:01.505Z,65.60
2017-09-11T03:04:28.969Z,65.70
2017-09-11T03:06:56.438Z,65.70
2017-09-11T03:09:24.003Z,65.60
2017-09-11T03:11:51.474Z,65.70
2017-09-11T03:14:18.947Z,65.80
2017-09-11T03:16:46.416Z,65.70
2017-09-11T03:19:13.854Z,65.80
2017-09-11T03:21:41.406Z,65.90
2017-09-11T03:24:08.848Z,66.00
2017-09-11T03:26:36.306Z,66.10
2017-09-11T03:29:04.297Z,66.20
2017-09-11T03:31:31.732Z,66.10
2017-09-11T03:33:59.188Z,66.10
2017-09-11T03:36:27.242Z,65.80
2017-09-11T03:38:54.679Z,65.80
2017-09-11T03:41:22.154Z,65.70
2017-09-11T03:43:49.780Z,65.50
2017-09-11T03:46:17.245Z,65.70
2017-09-11T03:48:44.708Z,65.70
2017-09-11T03:51:12.208Z,65.80
2017-09-11T03:53:39.671Z,65.50
2017-09-11T03:56:07.115Z,65.50
2017-09-11T03:58:36.003Z,65.40
2017-09-11T04:01:03.460Z,65.40
2017-09-11T04:03:30.912Z,65.40
2017-09-11T04:05:58.348Z,65.30
2017-09-11T04:08:25.787Z,65.30
2017-09-11T04:10:53.238Z,65.30
2017-09-11T04:13:20.844Z,65.30
2017-09-11T04:15:48.290Z,65.40
2017-09-11T04:18:16.235Z,65.50
2017-09-11T04:20:43.814Z,65.50
2017-09-11T04:23:11.242Z,65.70
2017-09-11T04:25:38.691Z,65.80
2017-09-11T04:28:06.366Z,65.90
2017-09-11T04:30:33.801Z,66.00
2017-09-11T04:33:01.242Z,66.20
2017-09-11T04:35:30.561Z,66.20
2017-09-11T04:37:58.016Z,66.20
2017-09-11T04:40:25.471Z,66.50
2017-09-11T04:42:53.332Z,67.90
2017-09-11T04:45:20.781Z,68.00
2017-09-11T04:47:48.207Z,68.80
2017-09-11T04:50:15.666Z,68.50
2017-09-11T04:52:43.461Z,68.70
2017-09-11T04:55:10.892Z,70.00
2017-09-11T04:57:38.336Z,70.60
2017-09-11T05:00:05.777Z,70.90
2017-09-11T05:02:33.593Z,71.60
2017-09-11T05:05:02.519Z,71.60
2017-09-11T05:07:30.057Z,71.20
2017-09-11T05:09:57.537Z,71.30
2017-09-11T05:12:24.980Z,71.80
2017-09-11T05:14:53.265Z,71.80
2017-09-11T05:17:20.692Z,72.60
2017-09-11T05:19:48.122Z,72.90
2017-09-11T05:22:15.946Z,73.40
2017-09-11T05:24:43.391Z,73.50
2017-09-11T05:27:10.838Z,73.60
2017-09-11T05:29:38.566Z,74.00
2017-09-11T05:32:05.990Z,73.90
2017-09-11T05:34:34.069Z,74.70
2017-09-11T05:37:01.730Z,74.70
2017-09-11T05:39:29.167Z,75.00
2017-09-11T05:41:56.684Z,75.30
2017-09-11T05:44:29.220Z,75.20
2017-09-11T05:46:56.653Z,76.10
2017-09-11T05:49:24.587Z,76.90
2017-09-11T05:51:52.022Z,76.90
2017-09-11T05:54:19.461Z,76.80
2017-09-11T05:56:47.427Z,77.30
2017-09-11T05:59:16.202Z,77.50
2017-09-11T06:01:43.663Z,77.50
2017-09-11T06:04:11.201Z,77.40
2017-09-11T06:06:38.657Z,77.30
2017-09-11T06:09:06.094Z,77.20
2017-09-11T06:11:33.523Z,77.20
2017-09-11T06:14:01.400Z,77.00
2017-09-11T06:16:29.216Z,76.70
2017-09-11T06:18:56.652Z,76.70
2017-09-11T06:21:24.141Z,76.60
2017-09-11T06:23:51.588Z,76.30
2017-09-11T06:26:19.040Z,76.70
2017-09-11T06:28:46.661Z,76.90
2017-09-11T06:31:14.114Z,76.90
2017-09-11T06:33:41.548Z,77.00
2017-09-11T06:36:09.007Z,76.90
2017-09-11T06:38:36.438Z,76.90
2017-09-11T06:41:03.870Z,76.70
2017-09-11T06:43:31.331Z,76.50
2017-09-11T06:45:58.756Z,76.20
2017-09-11T06:48:26.203Z,76.20
2017-09-11T06:50:53.649Z,76.30
2017-09-11T06:53:21.075Z,75.90
2017-09-11T06:55:48.512Z,76.00
2017-09-11T06:58:16.781Z,75.80
2017-09-11T07:00:44.216Z,75.50
2017-09-11T07:06:02.815Z,75.70
2017-09-11T07:08:30.270Z,75.50
2017-09-11T07:10:57.708Z,75.50
2017-09-11T07:13:40.077Z,75.60
2017-09-11T07:16:07.488Z,75.40
2017-09-11T07:18:34.924Z,75.50
2017-09-11T07:21:02.479Z,75.10
2017-09-11T07:23:30.292Z,74.90
2017-09-11T07:25:57.734Z,74.90
2017-09-11T07:28:25.206Z,74.90
2017-09-11T07:30:53.989Z,74.80
2017-09-11T07:33:21.447Z,74.70
2017-09-11T07:35:49.095Z,74.80
2017-09-11T07:38:16.929Z,74.90
2017-09-11T07:40:44.390Z,74.90
2017-09-11T07:43:11.876Z,74.80
2017-09-11T07:45:39.735Z,74.80
2017-09-11T07:48:07.375Z,74.80
2017-09-11T07:50:34.818Z,75.00
2017-09-11T07:53:02.260Z,75.10
2017-09-11T07:55:29.887Z,75.20
2017-09-11T07:57:57.451Z,75.20
2017-09-11T08:00:25.041Z,75.30
2017-09-11T08:02:53.677Z,75.50
2017-09-11T08:05:21.138Z,75.50
2017-09-11T08:07:48.598Z,75.90
2017-09-11T08:10:16.054Z,76.10
2017-09-11T08:12:43.810Z,75.80
2017-09-11T08:15:11.247Z,76.00
2017-09-11T08:17:39.084Z,75.20
2017-09-11T08:20:06.821Z,75.20
2017-09-11T08:22:34.274Z,74.80
2017-09-11T08:25:01.759Z,73.70
2017-09-11T08:27:29.191Z,73.70
2017-09-11T08:29:56.869Z,73.30
2017-09-11T08:32:24.313Z,73.40
2017-09-11T08:34:51.739Z,73.70
2017-09-11T08:37:19.229Z,73.50
2017-09-11T08:39:47.062Z,73.80
2017-09-11T08:42:14.723Z,73.80
2017-09-11T08:44:42.171Z,73.50
2017-09-11T08:47:09.595Z,72.50
2017-09-11T08:49:37.072Z,72.20
2017-09-11T08:52:04.518Z,72.30
2017-09-11T08:54:32.043Z,72.20
2017-09-11T08:56:59.501Z,72.60
2017-09-11T08:59:27.636Z,73.10
2017-09-11T09:01:55.087Z,73.10
2017-09-11T09:04:22.527Z,73.30
2017-09-11T09:06:50.340Z,71.60
2017-09-11T09:09:17.998Z,71.60
2017-09-11T09:11:45.477Z,71.20
2017-09-11T09:14:12.920Z,70.90
2017-09-11T09:16:40.400Z,70.90
2017-09-11T09:19:07.850Z,70.70
2017-09-11T09:21:35.606Z,70.80
2017-09-11T09:24:03.211Z,71.20
2017-09-11T09:26:30.700Z,71.10
2017-09-11T09:28:58.536Z,70.30
2017-09-11T09:31:26.196Z,70.30
2017-09-11T09:33:53.628Z,70.20
2017-09-11T09:36:21.063Z,69.60
2017-09-11T09:38:48.931Z,68.60
2017-09-11T09:41:16.408Z,68.60
2017-09-11T09:43:44.541Z,68.00
2017-09-11T09:46:12.002Z,68.00
2017-09-11T09:48:39.453Z,67.20
2017-09-11T09:51:07.021Z,66.70
2017-09-11T09:53:34.558Z,66.40
2017-09-11T09:56:01.963Z,67.30
2017-09-11T09:58:29.688Z,67.60
2017-09-11T10:00:57.158Z,67.00
2017-09-11T10:03:24.586Z,66.90
2017-09-11T10:05:52.489Z,66.10
2017-09-11T10:08:19.939Z,66.10
2017-09-11T10:10:47.385Z,66.80
2017-09-11T10:13:14.852Z,66.40
2017-09-11T10:15:42.343Z,66.70
2017-09-11T10:18:09.810Z,66.90
2017-09-11T10:20:37.303Z,67.20
2017-09-11T10:23:04.715Z,66.90
2017-09-11T10:25:32.150Z,66.60
2017-09-11T10:30:51.824Z,65.30
2017-09-11T10:33:19.667Z,64.90
2017-09-11T10:35:47.095Z,64.90
2017-09-11T10:38:14.554Z,64.50
2017-09-11T10:40:42.009Z,64.90
2017-09-11T10:43:09.455Z,64.50
2017-09-11T10:45:37.055Z,64.40
2017-09-11T10:48:04.486Z,63.60
2017-09-11T10:50:32.422Z,61.00
2017-09-11T10:52:59.980Z,61.10
2017-09-11T10:55:27.417Z,59.40
2017-09-11T10:57:54.860Z,59.30
2017-09-11T11:00:22.563Z,59.40
2017-09-11T11:02:50.014Z,58.50
2017-09-11T11:05:17.801Z,58.00
2017-09-11T11:07:46.082Z,56.00
2017-09-11T11:10:13.519Z,55.60
2017-09-11T11:12:40.962Z,55.50
2017-09-11T11:15:08.434Z,56.20
2017-09-11T11:17:35.887Z,56.90
2017-09-11T11:20:03.336Z,56.60
2017-09-11T11:22:31.037Z,56.60
2017-09-11T11:24:58.474Z,56.60
2017-09-11T11:27:25.911Z,57.00
2017-09-11T11:29:53.655Z,54.90
2017-09-11T11:32:21.071Z,54.50
2017-09-11T11:34:48.523Z,54.00
2017-09-11T11:37:16.007Z,54.10
2017-09-11T11:39:43.443Z,53.70
2017-09-11T11:42:10.887Z,54.00
2017-09-11T11:44:40.167Z,53.40
2017-09-11T11:47:07.619Z,53.40
2017-09-11T11:49:35.049Z,53.70
2017-09-11T11:52:02.536Z,53.80
2017-09-11T11:54:29.957Z,54.20
2017-09-11T11:56:57.500Z,55.10
2017-09-11T11:59:24.940Z,55.10
2017-09-11T12:01:52.406Z,55.10
2017-09-11T12:04:19.852Z,55.30
2017-09-11T12:06:48.144Z,55.50
2017-09-11T12:09:15.556Z,55.10
2017-09-11T12:11:43.000Z,55.40
2017-09-11T12:14:10.460Z,55.30
2017-09-11T12:16:37.899Z,55.70
2017-09-11T12:19:05.355Z,55.80
2017-09-11T12:21:32.821Z,56.20
2017-09-11T12:24:00.270Z,56.10
2017-09-11T12:26:28.029Z,55.30
2017-09-11T12:28:57.263Z,54.80
2017-09-11T12:31:25.120Z,53.20
2017-09-11T12:33:52.605Z,53.20
2017-09-11T12:36:20.218Z,53.00
2017-09-11T12:38:47.647Z,52.90
2017-09-11T12:41:15.072Z,53.70
2017-09-11T12:43:42.523Z,53.70
2017-09-11T12:46:09.981Z,54.60
2017-09-11T12:48:37.430Z,55.20
2017-09-11T12:51:04.937Z,55.30
2017-09-11T12:53:32.787Z,53.10
2017-09-11T12:56:00.242Z,53.10
2017-09-11T12:58:27.723Z,51.70
2017-09-11T13:00:55.164Z,51.50
2017-09-11T13:03:29.678Z,50.60
2017-09-11T13:05:57.167Z,50.20
2017-09-11T13:08:24.613Z,51.60
2017-09-11T13:10:52.276Z,51.60
2017-09-11T13:13:19.716Z,51.60
2017-09-11T13:15:47.139Z,50.80
2017-09-11T13:18:16.484Z,51.20
2017-09-11T13:20:43.928Z,51.10
2017-09-11T13:23:11.403Z,51.90
2017-09-11T13:25:38.980Z,51.00
2017-09-11T13:28:06.401Z,50.60
2017-09-11T13:30:33.846Z,50.60
2017-09-11T13:33:01.707Z,51.10
2017-09-11T13:35:29.150Z,51.10
2017-09-11T13:37:56.599Z,50.20
2017-09-11T13:40:24.234Z,50.00
2017-09-11T13:42:51.647Z,49.90
2017-09-11T13:45:19.183Z,49.40
2017-09-11T13:47:47.240Z,48.60
2017-09-11T13:50:14.678Z,48.30
2017-09-11T13:52:42.526Z,48.50
2017-09-11T13:55:10.182Z,48.50
2017-09-11T13:57:37.658Z,48.10
2017-09-11T14:00:05.273Z,47.40
2017-09-11T14:02:33.097Z,47.40
2017-09-11T14:05:00.667Z,47.70
2017-09-11T14:07:28.131Z,47.40
2017-09-11T14:09:56.178Z,47.10
2017-09-11T14:12:25.700Z,47.10
2017-09-11T14:14:53.539Z,48.30
2017-09-11T14:17:21.002Z,48.30
2017-09-11T14:19:48.468Z,48.60
2017-09-11T14:22:15.906Z,48.70
2017-09-11T14:24:43.383Z,48.30
2017-09-11T14:27:10.814Z,46.90
2017-09-11T14:29:38.377Z,45.80
2017-09-11T14:32:07.660Z,45.60
2017-09-11T14:34:35.508Z,46.10
2017-09-11T14:37:03.018Z,46.10
2017-09-11T14:39:30.449Z,46.60
2017-09-11T14:41:58.036Z,46.60
2017-09-11T14:47:19.898Z,46.60
2017-09-11T14:49:47.578Z,46.60
2017-09-11T14:52:15.219Z,47.10
2017-09-11T14:54:42.723Z,47.10
2017-09-11T14:57:10.172Z,47.40
2017-09-11T14:59:37.741Z,47.20
2017-09-11T15:02:05.387Z,47.70
2017-09-11T15:04:32.858Z,48.30
2017-09-11T15:07:00.293Z,49.90
2017-09-11T15:09:27.811Z,50.30
2017-09-11T15:11:55.251Z,50.50
2017-09-11T15:14:22.848Z,49.70
2017-09-11T15:16:50.304Z,50.20
2017-09-11T15:19:17.743Z,50.20
2017-09-11T15:21:45.234Z,49.00
2017-09-11T15:24:12.680Z,50.10
2017-09-11T15:26:40.680Z,50.40
2017-09-11T15:29:08.297Z,50.80
2017-09-11T15:31:35.840Z,50.40
2017-09-11T15:34:03.288Z,51.00
2017-09-11T15:36:30.781Z,51.30
2017-09-11T15:38:58.237Z,51.80
2017-09-11T15:41:25.732Z,52.20
2017-09-11T15:43:53.372Z,52.70
2017-09-11T15:46:20.812Z,53.00
2017-09-11T15:48:48.252Z,53.40
2017-09-11T15:51:16.131Z,54.70
2017-09-11T15:53:44.556Z,54.70
2017-09-11T15:56:11.971Z,55.40
2017-09-11T15:58:40.178Z,57.80
2017-09-11T16:01:08.022Z,58.00
2017-09-11T16:03:35.540Z,58.00
2017-09-11T16:06:03.122Z,58.50
2017-09-11T16:08:30.595Z,59.70
2017-09-11T16:10:58.056Z,59.10
2017-09-11T16:13:26.075Z,60.90
2017-09-11T16:15:53.669Z,60.90
2017-09-11T16:18:21.158Z,62.70
2017-09-11T16:20:48.635Z,64.20
2017-09-11T16:23:16.575Z,65.80
2017-09-11T16:25:44.024Z,65.80
2017-09-11T16:28:11.604Z,66.30
2017-09-11T16:30:39.238Z,67.50
2017-09-11T16:33:06.743Z,67.70
2017-09-11T16:35:34.276Z,66.70
2017-09-11T16:38:01.903Z,66.30
2017-09-11T16:40:29.791Z,64.80
2017-09-11T16:42:57.240Z,64.80
2017-09-11T16:45:25.116Z,63.20
2017-09-11T16:47:52.619Z,63.10
2017-09-11T16:50:20.047Z,63.00
2017-09-11T16:52:47.496Z,63.10
2017-09-11T16:55:14.939Z,63.10
2017-09-11T16:57:42.963Z,63.50
2017-09-11T17:00:10.433Z,63.50
2017-09-11T17:02:37.874Z,63.70
2017-09-11T17:05:05.314Z,63.50
2017-09-11T17:07:32.774Z,63.40
2017-09-11T17:10:00.486Z,63.70
2017-09-11T17:12:27.906Z,63.70
2017-09-11T17:14:55.325Z,63.70
2017-09-11T17:17:22.770Z,63.80
2017-09-11T17:19:50.312Z,63.80
2017-09-11T17:22:17.757Z,63.90
2017-09-11T17:24:45.345Z,64.20
2017-09-11T17:27:12.767Z,64.10
2017-09-11T17:29:40.620Z,64.30
2017-09-11T17:32:13.937Z,64.30
2017-09-11T17:34:41.934Z,64.30
2017-09-11T17:37:09.359Z,64.30
2017-09-11T17:39:37.231Z,64.60
2017-09-11T17:42:05.072Z,64.60
2017-09-11T17:44:32.489Z,64.70
2017-09-11T17:46:59.914Z,64.80
2017-09-11T17:49:27.369Z,64.90
2017-09-11T17:51:54.796Z,65.20
2017-09-11T17:54:22.216Z,65.50
2017-09-11T17:56:50.052Z,65.70
2017-09-11T17:59:17.457Z,65.70
2017-09-11T18:01:44.888Z,65.80
2017-09-11T18:04:12.327Z,65.50
2017-09-11T18:06:39.763Z,65.40
2017-09-11T18:09:07.186Z,65.00
2017-09-11T18:11:35.024Z,65.00
2017-09-11T18:14:02.462Z,65.00
2017-09-11T18:16:30.865Z,64.60
2017-09-11T18:18:59.839Z,64.10
2017-09-11T18:21:27.260Z,63.20
2017-09-11T18:23:55.080Z,61.50
2017-09-11T18:26:22.548Z,61.50
2017-09-11T18:28:49.959Z,61.10
2017-09-11T18:31:17.783Z,61.10
2017-09-11T18:33:45.224Z,61.10
2017-09-11T18:36:12.652Z,61.20
2017-09-11T18:38:40.455Z,61.20
2017-09-11T18:41:07.895Z,61.20
2017-09-11T18:43:35.369Z,60.80
2017-09-11T18:46:03.710Z,61.00
2017-09-11T18:48:31.728Z,60.90
2017-09-11T18:50:59.152Z,60.90
2017-09-11T18:53:26.978Z,60.80
2017-09-11T18:55:54.523Z,60.80
2017-09-11T18:58:21.939Z,61.20
2017-09-11T19:00:49.364Z,61.00
2017-09-11T19:03:16.830Z,60.90
2017-09-11T19:05:44.248Z,61.00
2017-09-11T19:08:13.167Z,61.50
2017-09-11T19:10:40.842Z,61.50
2017-09-11T19:13:08.263Z,61.60
2017-09-11T19:15:41.023Z,62.20
2017-09-11T19:18:08.450Z,62.20
2017-09-11T19:20:35.903Z,62.60
2017-09-11T19:23:04.255Z,62.90
2017-09-11T19:25:32.104Z,63.60
2017-09-11T19:27:59.536Z,63.60
2017-09-11T19:30:27.180Z,63.90
2017-09-11T19:32:54.593Z,64.10
2017-09-11T19:35:22.015Z,64.30
2017-09-11T19:40:40.249Z,64.50
2017-09-11T19:43:10.174Z,64.60
2017-09-11T21:22:55.532Z,65.70
2017-09-11T21:25:22.960Z,65.70
2017-09-11T21:27:50.784Z,65.70
2017-09-11T21:30:18.351Z,65.70
2017-09-11T21:32:45.756Z,65.60
2017-09-11T21:35:13.667Z,65.60
2017-09-11T21:37:41.118Z,65.60
2017-09-11T21:40:08.523Z,65.50
2017-09-11T21:42:35.941Z,65.50
2017-09-11T21:45:03.385Z,65.50
2017-09-11T21:47:31.194Z,65.50
2017-09-11T21:49:58.616Z,65.50
2017-09-11T21:52:26.471Z,65.40
2017-09-11T21:54:54.284Z,65.50
2017-09-11T21:57:21.699Z,65.50
2017-09-11T21:59:49.713Z,65.50
2017-09-11T22:02:17.143Z,65.50
2017-09-11T22:04:44.955Z,65.70
2017-09-11T22:07:12.397Z,65.70
2017-09-11T22:09:39.815Z,65.80
2017-09-11T22:12:07.347Z,65.80
2017-09-11T22:14:35.619Z,65.90
2017-09-11T22:17:03.055Z,65.90
2017-09-11T22:19:30.475Z,65.90
2017-09-11T22:21:58.012Z,65.90
2017-09-11T22:24:25.442Z,65.90
2017-09-11T22:26:52.864Z,65.90
2017-09-11T22:29:21.510Z,65.90
2017-09-11T22:31:48.940Z,65.90
2017-09-11T22:34:18.708Z,66.00
2017-09-11T22:36:46.346Z,66.00
2017-09-11T22:39:13.767Z,66.00
2017-09-11T22:41:41.588Z,66.00
2017-09-11T22:44:09.027Z,66.00
2017-09-11T22:46:36.448Z,65.90
2017-09-11T22:49:03.858Z,66.00
2017-09-11T22:51:31.308Z,66.00
2017-09-11T22:53:58.736Z,66.00
2017-09-11T22:56:26.232Z,65.90
2017-09-11T22:58:53.673Z,65.80
2017-09-11T23:01:21.091Z,65.70
2017-09-11T23:03:48.516Z,65.80
2017-09-11T23:06:16.224Z,65.80
2017-09-11T23:08:43.644Z,65.90
2017-09-11T23:11:11.123Z,66.00
2017-09-11T23:13:38.671Z,66.00
2017-09-11T23:16:06.475Z,66.10
2017-09-11T23:18:33.904Z,66.10
2017-09-11T23:21:01.356Z,66.00
2017-09-11T23:23:29.165Z,66.00
2017-09-11T23:25:56.621Z,66.00
2017-09-11T23:28:24.278Z,66.00
2017-09-11T23:30:51.708Z,66.00
2017-09-11T23:33:19.619Z,66.10
2017-09-11T23:35:47.070Z,66.10
2017-09-11T23:38:14.495Z,66.00
2017-09-11T23:40:42.517Z,66.00
2017-09-11T23:43:10.085Z,66.00
2017-09-11T23:45:37.503Z,66.10
2017-09-11T23:48:05.323Z,66.10
2017-09-11T23:50:32.774Z,66.10
2017-09-11T23:53:00.233Z,66.00
2017-09-11T23:55:27.650Z,66.10
2017-09-11T23:57:56.067Z,66.00
